Airfield :
LOGIN :

Register | Disclaimer

   EN    FR    IT 

 










Legend :    VFR   Marginal VFR   IFR   Intensive IFR   Very Intensive IFR
Visi :
Ceiling :
>= 8 km
>= 3000ft
5 to 8 km
1000 to 3000 ft
1500m to 5 km
500 to 1000 ft
800 to 1500m
200 to 500 ft
< 800m
< 200 ft
Symbols :   Thunderstorms  Fog  Heavy snow  Heavy precipitations  Wind > 20 kt
SIGMETs :     Misc.  Thunderstorms  Icing  Turbulence  Mountain Waves  Volcanic Ashes






- Airport Elevation : 219 ft
- IATA code : DNR


LFRD - Dinard

CURRENT METAR :
  • 282200Z AUTO 24008KT 9999 FEW024/// BKN070/// OVC084/// ///TCU 06/05 Q1010 TEMPO SHRA BKN015

EXPIRED METARs :
  • 282130Z AUTO 25008KT 9999 -DZ BKN019 OVC072 07/05 Q1010 TEMPO SHRA
  • 282100Z AUTO 26009KT 9999 BKN020 BKN030 BKN035 07/05 Q1009 TEMPO 25015G30KT SHRA
  • 282030Z AUTO 26012KT 9999 FEW025 SCT068 07/05 Q1009 TEMPO 25015G30KT SHRA
  • 282000Z AUTO 24012KT 9999 FEW023/// SCT035/// BKN042/// ///CB 07/05 Q1009 TEMPO SHRA BKN015 BECMG 25015G30KT
  • 281930Z AUTO 24009KT 9999 FEW025 SCT031 BKN062 06/05 Q1009 TEMPO SHRA BECMG 25015G30KT

TAF TAF LFRD
Valid from the 28 at 18:00 until the 29 at 18:00 UTC


281700Z 2818/2918 25015G30KT 9999 SCT020
TEMPO 2818/2820 25025G40KT 4000 SHRA BKN013TCU
PROB40
TEMPO 2820/2906 5000 SHRA BKN015
BECMG 2822/2824 24010KT
PROB30
TEMPO 2900/2906 24020G30KT
BECMG 2915/2918 18010KT
ATIS : +33 2 99 16 81 50



MET'MAP, your aeronautical weather chart ! - Copyright ORBIFLY December 2007 - Disclaimer

ORBIFLY MET'MAP TEAM :

Programming & Development : Alexandra Zaïnal
Concept & original design : Baudouin d'Aumeries
Assistance for programming : Marc-Olivier Méhu
Technical & hardware support : Manuel Goepfert

Contact : metmap@orbifly.com




SOURCES & CREDITS :

   NOAA